createdAt,value
2023-01-05T00:01:49.632Z,100200.78
2023-01-05T00:04:18.152Z,100191.06
2023-01-05T00:06:46.810Z,100185.63
2023-01-05T00:09:17.929Z,100185.53
2023-01-05T00:12:04.508Z,100173.94
2023-01-05T00:14:53.555Z,100168.41
2023-01-05T00:17:42.594Z,100163.84
2023-01-05T00:20:38.222Z,100154.78
2023-01-05T00:23:07.752Z,100160.91
2023-01-05T00:25:40.649Z,100142.25
2023-01-05T00:28:09.279Z,100141.19
2023-01-05T00:30:48.664Z,100141.97
2023-01-05T00:33:18.726Z,100145.41
2023-01-05T00:35:47.075Z,100141.78
2023-01-05T00:38:15.388Z,100132.06
2023-01-05T00:40:43.727Z,100123.19
2023-01-05T00:43:12.127Z,100125.84
2023-01-05T00:45:40.528Z,100133.97
2023-01-05T00:48:08.989Z,100154.38
2023-01-05T00:50:37.284Z,100164.09
2023-01-05T00:53:05.552Z,100174.66
2023-01-05T00:55:33.888Z,100177.44
2023-01-05T00:58:02.237Z,100182.06
2023-01-05T01:00:30.602Z,100200.16
2023-01-05T01:02:59.286Z,100203.09
2023-01-05T01:05:27.616Z,100206.22
2023-01-05T01:07:56.001Z,100218.94
2023-01-05T01:10:26.242Z,100212.09
2023-01-05T01:12:55.670Z,100234.66
2023-01-05T01:15:24.015Z,100236.81
2023-01-05T01:17:52.392Z,100247.78
2023-01-05T01:20:21.230Z,100249.00
2023-01-05T01:22:49.704Z,100255.53
2023-01-05T01:25:18.107Z,100261.00
2023-01-05T01:27:46.520Z,100262.06
2023-01-05T01:30:15.160Z,100264.03
2023-01-05T01:32:43.529Z,100266.88
2023-01-05T01:35:11.847Z,100280.25
2023-01-05T01:37:40.174Z,100284.97
2023-01-05T01:40:10.071Z,100305.59
2023-01-05T01:42:38.530Z,100312.81
2023-01-05T01:45:22.208Z,100330.78
2023-01-05T01:47:56.408Z,100320.53
2023-01-05T01:50:38.091Z,100319.72
2023-01-05T01:53:47.735Z,100334.00
2023-01-05T01:56:20.012Z,100377.63
2023-01-05T01:58:48.601Z,100377.88
2023-01-05T02:01:17.446Z,100381.66
2023-01-05T02:03:46.651Z,100410.31
2023-01-05T02:06:15.527Z,100407.88
2023-01-05T02:08:44.285Z,100369.06
2023-01-05T02:11:56.800Z,100419.00
2023-01-05T02:14:46.776Z,100386.16
2023-01-05T02:17:17.933Z,100401.47
2023-01-05T02:20:03.230Z,100388.53
2023-01-05T02:23:02.028Z,100372.13
2023-01-05T02:25:41.619Z,100373.44
2023-01-05T02:28:34.222Z,100339.78
2023-01-05T02:31:23.911Z,100328.41
2023-01-05T02:34:19.039Z,100313.44
2023-01-05T02:37:09.303Z,100290.41
2023-01-05T02:39:57.281Z,100256.00
2023-01-05T02:42:28.957Z,100232.03
2023-01-05T02:44:57.539Z,100254.31
2023-01-05T02:47:28.854Z,100260.59
2023-01-05T02:50:06.031Z,100266.88
2023-01-05T02:52:49.929Z,100273.03
2023-01-05T02:55:22.961Z,100250.19
2023-01-05T02:58:04.026Z,100205.09
2023-01-05T03:00:39.691Z,100207.03
2023-01-05T03:03:26.195Z,100187.63
2023-01-05T03:06:21.989Z,100107.94
2023-01-05T03:08:56.995Z,100167.44
2023-01-05T03:11:52.790Z,100162.09
2023-01-05T03:14:36.207Z,100196.88
2023-01-05T03:17:09.610Z,100188.88
2023-01-05T03:19:41.714Z,100165.84
2023-01-05T03:22:52.089Z,100191.53
2023-01-05T03:25:42.231Z,100212.97
2023-01-05T03:28:43.953Z,100220.00
2023-01-05T03:31:53.923Z,100242.22
2023-01-05T03:35:14.473Z,100235.97
2023-01-05T03:38:05.584Z,100228.94
2023-01-05T03:40:38.242Z,100237.00
2023-01-05T03:43:08.954Z,100246.75
2023-01-05T03:45:44.113Z,100259.28
2023-01-05T03:48:12.494Z,100238.84
2023-01-05T03:50:41.129Z,100233.63
2023-01-05T03:53:09.582Z,100216.00
2023-01-05T03:55:37.913Z,100193.84
2023-01-05T03:58:06.358Z,100188.53
2023-01-05T04:00:34.979Z,100186.81
2023-01-05T04:03:03.630Z,100188.72
2023-01-05T04:05:32.153Z,100196.75
2023-01-05T04:08:00.658Z,100192.38
2023-01-05T04:10:28.974Z,100182.59
2023-01-05T04:12:57.443Z,100194.94
2023-01-05T04:15:25.813Z,100199.25
2023-01-05T04:17:54.246Z,100234.69
2023-01-05T04:20:22.583Z,100229.28
2023-01-05T04:22:51.023Z,100239.94
2023-01-05T04:25:19.451Z,100245.19
2023-01-05T04:27:47.799Z,100274.38
2023-01-05T04:30:16.117Z,100272.66
2023-01-05T04:32:44.483Z,100276.19
2023-01-05T04:35:12.819Z,100270.06
2023-01-05T04:37:41.374Z,100271.00
2023-01-05T04:40:10.229Z,100278.97
2023-01-05T04:42:38.668Z,100278.13
2023-01-05T04:45:07.366Z,100290.56
2023-01-05T04:47:35.813Z,100285.25
2023-01-05T04:50:04.238Z,100276.41
2023-01-05T04:52:32.610Z,100279.16
2023-01-05T04:55:01.017Z,100275.53
2023-01-05T04:57:29.428Z,100300.34
2023-01-05T04:59:57.758Z,100289.63
2023-01-05T05:02:26.366Z,100286.00
2023-01-05T05:04:54.899Z,100296.44
2023-01-05T05:07:24.193Z,100299.03
2023-01-05T05:09:52.467Z,100298.09
2023-01-05T05:12:21.561Z,100294.63
2023-01-05T05:14:50.224Z,100286.59
2023-01-05T05:17:19.105Z,100298.97
2023-01-05T05:19:47.547Z,100280.44
2023-01-05T05:22:15.943Z,100273.31
2023-01-05T05:24:44.351Z,100281.28
2023-01-05T05:27:12.657Z,100280.44
2023-01-05T05:29:40.983Z,100268.03
2023-01-05T05:32:09.953Z,100257.38
2023-01-05T05:34:38.395Z,100259.28
2023-01-05T05:37:06.882Z,100239.88
2023-01-05T05:39:35.188Z,100243.44
2023-01-05T05:42:03.635Z,100252.31
2023-01-05T05:44:32.088Z,100237.22
2023-01-05T05:47:00.841Z,100252.25
2023-01-05T05:49:29.271Z,100255.75
2023-01-05T05:51:57.623Z,100254.91
2023-01-05T05:54:26.109Z,100268.97
2023-01-05T05:56:54.777Z,100265.47
2023-01-05T05:59:23.255Z,100274.25
2023-01-05T06:01:53.458Z,100267.13
2023-01-05T06:04:21.863Z,100267.03
2023-01-05T06:06:50.198Z,100261.81
2023-01-05T06:09:18.577Z,100287.47
2023-01-05T06:11:47.061Z,100288.25
2023-01-05T06:14:15.531Z,100294.41
2023-01-05T06:16:43.964Z,100292.66
2023-01-05T06:19:12.598Z,100297.88
2023-01-05T06:21:41.061Z,100307.59
2023-01-05T06:24:09.623Z,100312.03
2023-01-05T06:26:38.024Z,100315.47
2023-01-05T06:29:06.395Z,100314.50
2023-01-05T06:31:34.915Z,100328.66
2023-01-05T06:34:03.213Z,100332.09
2023-01-05T06:36:31.479Z,100325.84
2023-01-05T06:38:59.763Z,100328.34
2023-01-05T06:41:28.135Z,100315.25
2023-01-05T06:43:56.493Z,100322.38
2023-01-05T06:46:24.908Z,100325.03
2023-01-05T06:48:53.349Z,100335.84
2023-01-05T06:51:22.312Z,100333.25
2023-01-05T06:53:50.565Z,100326.28
2023-01-05T06:56:18.907Z,100325.47
2023-01-05T06:58:47.264Z,100321.09
2023-01-05T07:01:15.963Z,100311.31
2023-01-05T07:03:44.451Z,100325.56
2023-01-05T07:06:16.128Z,100331.75
2023-01-05T07:08:44.741Z,100328.16
2023-01-05T07:11:13.068Z,100341.44
2023-01-05T07:13:41.610Z,100340.53
2023-01-05T07:16:10.057Z,100324.41
2023-01-05T07:18:38.427Z,100340.31
2023-01-05T07:21:06.923Z,100315.44
2023-01-05T07:23:38.751Z,100309.16
2023-01-05T07:26:09.472Z,100317.22
2023-01-05T07:28:39.289Z,100324.41
2023-01-05T07:31:10.832Z,100311.31
2023-01-05T07:33:40.239Z,100307.06
2023-01-05T07:36:09.645Z,100306.31
2023-01-05T07:38:37.954Z,100309.91
2023-01-05T07:41:06.530Z,100336.44
2023-01-05T07:43:36.503Z,100335.47
2023-01-05T07:46:05.731Z,100331.19
2023-01-05T07:48:34.113Z,100340.09
2023-01-05T07:51:05.403Z,100322.56
2023-01-05T07:53:43.839Z,100326.22
2023-01-05T07:56:14.342Z,100336.84
2023-01-05T07:58:43.542Z,100336.94
2023-01-05T08:01:14.907Z,100333.47
2023-01-05T08:03:43.415Z,100342.31
2023-01-05T08:06:18.298Z,100325.44
2023-01-05T08:08:47.539Z,100327.28
2023-01-05T08:11:18.430Z,100332.59
2023-01-05T08:14:03.299Z,100345.13
2023-01-05T08:16:34.365Z,100356.84
2023-01-05T08:19:05.215Z,100331.09
2023-01-05T08:21:36.155Z,100335.56
2023-01-05T08:24:05.145Z,100350.75
2023-01-05T08:26:33.638Z,100336.50
2023-01-05T08:29:02.372Z,100335.63
2023-01-05T08:31:38.091Z,100328.56
2023-01-05T08:34:07.578Z,100301.13
2023-01-05T08:36:36.042Z,100318.97
2023-01-05T08:39:04.799Z,100367.75
2023-01-05T08:41:36.747Z,100393.41
2023-01-05T08:44:15.832Z,100365.16
2023-01-05T08:46:44.279Z,100386.38
2023-01-05T08:49:13.544Z,100370.47
2023-01-05T08:51:51.874Z,100368.03
2023-01-05T08:54:20.482Z,100399.22
2023-01-05T08:56:51.769Z,100388.63
2023-01-05T08:59:20.734Z,100395.75
2023-01-05T09:01:49.828Z,100384.19
2023-01-05T09:04:20.387Z,100392.09
2023-01-05T09:06:49.824Z,100405.25
2023-01-05T09:09:18.248Z,100397.91
2023-01-05T09:11:46.634Z,100409.25
2023-01-05T09:14:18.431Z,100410.81
2023-01-05T09:17:06.523Z,100409.81
2023-01-05T09:19:35.917Z,100422.19
2023-01-05T09:22:05.274Z,100425.78
2023-01-05T09:24:33.864Z,100428.34
2023-01-05T09:27:02.523Z,100442.69
2023-01-05T09:29:30.998Z,100436.53
2023-01-05T09:31:59.476Z,100439.16
2023-01-05T09:34:28.025Z,100437.28
2023-01-05T09:36:56.603Z,100440.00
2023-01-05T09:39:25.167Z,100427.63
2023-01-05T09:41:57.723Z,100441.00
2023-01-05T09:44:38.684Z,100422.38
2023-01-05T09:47:28.354Z,100441.00
2023-01-05T09:49:59.282Z,100441.94
2023-01-05T09:52:31.498Z,100440.22
2023-01-05T09:55:12.059Z,100448.97
2023-01-05T09:57:42.688Z,100459.63
2023-01-05T10:00:18.227Z,100463.34
2023-01-05T10:02:59.432Z,100470.53
2023-01-05T10:05:29.582Z,100460.88
2023-01-05T10:08:16.610Z,100462.69
2023-01-05T10:11:23.118Z,100467.13
2023-01-05T10:14:41.840Z,100473.31
2023-01-05T10:20:22.867Z,100467.06
2023-01-05T10:22:54.273Z,100471.47
2023-01-05T10:25:55.359Z,100468.81
2023-01-05T10:28:37.649Z,100465.28
2023-01-05T10:31:25.688Z,100464.41
2023-01-05T10:34:05.218Z,100460.09
2023-01-05T10:37:09.660Z,100442.63
2023-01-05T10:40:02.432Z,100441.81
2023-01-05T10:42:51.560Z,100432.19
2023-01-05T10:45:21.845Z,100441.97
2023-01-05T10:47:51.397Z,100431.34
2023-01-05T10:50:39.385Z,100432.31
2023-01-05T10:53:17.634Z,100444.81
2023-01-05T10:56:10.204Z,100448.47
2023-01-05T10:58:41.149Z,100448.53
2023-01-05T11:01:28.775Z,100451.28
2023-01-05T11:04:33.977Z,100454.72
2023-01-05T11:07:06.637Z,100459.16
2023-01-05T11:09:41.362Z,100468.94
2023-01-05T11:12:22.640Z,100473.31
2023-01-05T11:14:59.554Z,100475.19
2023-01-05T11:17:31.175Z,100475.13
2023-01-05T11:20:01.173Z,100482.25
2023-01-05T11:22:38.319Z,100479.44
2023-01-05T11:25:31.524Z,100488.22
2023-01-05T11:28:18.301Z,100496.13
2023-01-05T11:31:06.953Z,100498.84
2023-01-05T11:33:40.468Z,100507.56
2023-01-05T11:36:09.275Z,100513.88
2023-01-05T11:38:37.728Z,100509.50
2023-01-05T11:41:11.983Z,100518.22
2023-01-05T11:43:41.120Z,100516.41
2023-01-05T11:46:10.202Z,100511.81
2023-01-05T11:48:38.710Z,100522.25
2023-01-05T11:51:07.350Z,100523.06
2023-01-05T11:53:35.660Z,100534.56
2023-01-05T11:56:10.065Z,100525.72
2023-01-05T11:58:46.564Z,100538.88
2023-01-05T12:01:48.850Z,100538.88
2023-01-05T12:04:47.325Z,100544.13
2023-01-05T12:07:37.424Z,100545.00
2023-01-05T12:10:25.288Z,100536.94
2023-01-05T12:13:05.267Z,100547.53
2023-01-05T12:16:02.033Z,100519.16
2023-01-05T12:18:52.630Z,100513.81
2023-01-05T12:21:32.967Z,100527.97
2023-01-05T12:24:39.837Z,100528.78
2023-01-05T12:27:26.085Z,100524.38
2023-01-05T12:36:39.676Z,100551.06
2023-01-05T12:39:49.571Z,100543.78
2023-01-05T12:42:38.869Z,100547.25
2023-01-05T12:45:51.514Z,100552.59
2023-01-05T12:48:47.205Z,100553.53
2023-01-05T12:51:51.043Z,100543.66
2023-01-05T12:54:28.137Z,100556.19
2023-01-05T12:57:06.596Z,100550.88
2023-01-05T12:59:44.190Z,100549.97
2023-01-05T13:02:50.580Z,100556.03
2023-01-05T13:05:30.399Z,100555.91
2023-01-05T13:08:20.016Z,100549.72
2023-01-05T13:11:06.081Z,100550.72
2023-01-05T13:13:47.286Z,100536.63
2023-01-05T13:16:22.622Z,100549.94
2023-01-05T13:18:57.750Z,100555.44
2023-01-05T13:21:27.926Z,100536.94
2023-01-05T13:24:11.027Z,100534.34
2023-01-05T13:26:39.509Z,100511.41
2023-01-05T13:29:07.991Z,100526.56
2023-01-05T13:31:54.887Z,100527.31
2023-01-05T13:34:53.063Z,100520.19
2023-01-05T13:40:19.829Z,100538.75
2023-01-05T13:43:22.060Z,100551.25
2023-01-05T13:46:08.155Z,100559.34
2023-01-05T13:49:03.131Z,100555.09
2023-01-05T13:51:34.555Z,100550.81
2023-01-05T13:54:13.928Z,100549.84
2023-01-05T13:56:42.513Z,100544.59
2023-01-05T13:59:46.379Z,100556.09
2023-01-05T14:02:42.885Z,100564.00
2023-01-05T14:05:31.150Z,100581.69
2023-01-05T14:08:04.321Z,100579.16
2023-01-05T14:10:34.683Z,100594.31
2023-01-05T14:13:04.389Z,100596.34
2023-01-05T14:15:44.300Z,100597.22
2023-01-05T14:18:33.397Z,100600.81
2023-01-05T14:21:12.307Z,100597.34
2023-01-05T14:23:40.622Z,100596.53
2023-01-05T14:26:10.553Z,100600.84
2023-01-05T14:28:45.275Z,100606.25
2023-01-05T14:31:17.634Z,100607.91
2023-01-05T14:34:01.927Z,100615.66
2023-01-05T14:36:39.341Z,100615.56
2023-01-05T14:39:23.191Z,100611.13
2023-01-05T14:42:07.468Z,100604.88
2023-01-05T14:44:44.633Z,100610.31
2023-01-05T14:47:13.279Z,100611.38
2023-01-05T14:49:52.799Z,100611.38
2023-01-05T14:52:54.872Z,100621.81
2023-01-05T14:55:40.061Z,100626.28
2023-01-05T14:58:36.460Z,100626.22
2023-01-05T15:01:19.343Z,100634.28
2023-01-05T15:04:28.482Z,100638.94
2023-01-05T15:07:11.358Z,100649.81
2023-01-05T15:10:14.038Z,100646.22
2023-01-05T15:12:42.386Z,100652.31
2023-01-05T15:15:31.825Z,100661.81
2023-01-05T15:18:18.707Z,100668.16
2023-01-05T15:20:54.793Z,100672.63
2023-01-05T15:26:59.484Z,100676.03
2023-01-05T15:29:47.574Z,100684.03
2023-01-05T15:32:38.525Z,100688.38
2023-01-05T15:35:17.857Z,100686.50
2023-01-05T15:37:52.904Z,100694.41
2023-01-05T15:40:24.038Z,100686.44
2023-01-05T15:42:58.452Z,100683.78
2023-01-05T15:45:36.252Z,100688.19
2023-01-05T15:48:30.090Z,100685.53
2023-01-05T15:51:00.462Z,100688.03
2023-01-05T15:53:39.197Z,100702.28
2023-01-05T15:56:25.436Z,100692.56
2023-01-05T15:58:54.237Z,100714.88
2023-01-05T16:01:22.948Z,100711.41
2023-01-05T16:03:51.821Z,100716.72
2023-01-05T16:06:30.305Z,100718.47
2023-01-05T16:09:08.569Z,100730.84
2023-01-05T16:11:44.286Z,100725.63
2023-01-05T16:14:49.554Z,100731.00
2023-01-05T16:17:23.383Z,100735.41
2023-01-05T16:19:57.772Z,100743.44
2023-01-05T16:22:49.129Z,100744.38
2023-01-05T16:25:20.887Z,100752.34
2023-01-05T16:27:59.511Z,100750.59
2023-01-05T16:30:44.650Z,100761.38
2023-01-05T16:33:12.951Z,100768.47
2023-01-05T16:35:54.425Z,100770.28
2023-01-05T16:38:28.941Z,100781.81
2023-01-05T16:41:10.298Z,100782.84
2023-01-05T16:43:43.328Z,100785.63
2023-01-05T16:46:21.392Z,100794.56
2023-01-05T16:48:59.629Z,100802.63
2023-01-05T16:51:34.402Z,100803.47
2023-01-05T16:54:24.807Z,100806.06
2023-01-05T16:57:03.363Z,100802.53
2023-01-05T16:59:40.700Z,100816.72
2023-01-05T17:02:45.140Z,100820.28
2023-01-05T17:05:25.687Z,100828.16
2023-01-05T17:08:28.866Z,100839.59
2023-01-05T17:10:59.983Z,100837.81
2023-01-05T17:13:37.112Z,100839.50
2023-01-05T17:16:06.708Z,100841.28
2023-01-05T17:18:35.191Z,100837.78
2023-01-05T17:21:06.424Z,100843.88
2023-01-05T17:23:49.886Z,100845.69
2023-01-05T17:26:36.789Z,100841.13
2023-01-05T17:29:08.050Z,100830.34
2023-01-05T17:31:37.069Z,100838.34
2023-01-05T17:34:05.438Z,100835.50
2023-01-05T17:36:35.829Z,100834.53
2023-01-05T17:39:04.960Z,100851.28
2023-01-05T17:41:33.593Z,100847.72
2023-01-05T17:44:01.909Z,100847.59
2023-01-05T17:46:36.467Z,100868.75
2023-01-05T17:49:04.796Z,100881.22
2023-01-05T17:51:33.337Z,100915.09
2023-01-05T17:54:01.926Z,100917.28
2023-01-05T17:56:30.311Z,100928.16
2023-01-05T17:58:58.729Z,100932.88
2023-01-05T18:01:27.123Z,100940.16
2023-01-05T18:03:55.500Z,100948.16
2023-01-05T18:06:23.928Z,100962.38
2023-01-05T18:08:52.312Z,100966.91
2023-01-05T18:11:20.634Z,100966.91
2023-01-05T18:13:49.075Z,100969.50
2023-01-05T18:16:18.187Z,100964.09
2023-01-05T18:18:46.603Z,100958.78
2023-01-05T18:21:15.168Z,100938.41
2023-01-05T18:23:43.830Z,100924.22
2023-01-05T18:26:12.249Z,100923.47
2023-01-05T18:28:40.690Z,100935.88
2023-01-05T18:31:14.400Z,100944.59
2023-01-05T18:33:43.040Z,100952.47
2023-01-05T18:36:14.548Z,100958.69
2023-01-05T18:38:43.589Z,100965.84
2023-01-05T18:41:12.789Z,100970.34
2023-01-05T18:43:41.211Z,100974.97
2023-01-05T18:46:09.695Z,100978.63
2023-01-05T18:48:38.082Z,100980.56
2023-01-05T18:51:08.952Z,100990.34
2023-01-05T18:53:40.638Z,100983.22
2023-01-05T18:56:11.479Z,100993.81
2023-01-05T18:58:39.787Z,100992.78
2023-01-05T19:01:13.255Z,100990.97
2023-01-05T19:03:42.262Z,100991.84
2023-01-05T19:06:15.864Z,100998.97
2023-01-05T19:08:45.256Z,101006.03
2023-01-05T19:11:27.991Z,101009.59
2023-01-05T19:13:57.744Z,101016.66
2023-01-05T19:16:30.602Z,101021.88
2023-01-05T19:19:07.525Z,101030.75
2023-01-05T19:21:38.196Z,101041.47
2023-01-05T19:24:09.583Z,101051.09
2023-01-05T19:26:38.075Z,101042.19
2023-01-05T19:29:09.508Z,101041.41
2023-01-05T19:31:39.045Z,101043.19
2023-01-05T19:34:07.720Z,101042.16
2023-01-05T19:36:37.052Z,101046.50
2023-01-05T19:39:11.306Z,101040.16
2023-01-05T19:41:41.202Z,101049.84
2023-01-05T19:44:17.388Z,101052.53
2023-01-05T19:46:46.809Z,101053.47
2023-01-05T19:49:18.480Z,101056.22
2023-01-05T19:51:47.659Z,101059.13
2023-01-05T19:54:17.514Z,101065.75
2023-01-05T19:56:46.887Z,101065.25
2023-01-05T19:59:22.401Z,101071.69
2023-01-05T20:01:50.962Z,101078.00
2023-01-05T20:04:19.825Z,101079.22
2023-01-05T20:06:48.315Z,101086.38
2023-01-05T20:09:20.155Z,101083.78
2023-01-05T20:11:51.637Z,101096.09
2023-01-05T20:14:26.346Z,101098.72
2023-01-05T20:16:57.398Z,101104.84
2023-01-05T20:19:27.930Z,101112.53
2023-01-05T20:21:58.210Z,101117.56
2023-01-05T20:24:32.145Z,101120.91
2023-01-05T20:27:04.659Z,101129.56
2023-01-05T20:29:33.609Z,101132.97
2023-01-05T20:32:14.007Z,101137.44
2023-01-05T20:34:44.042Z,101141.09
2023-01-05T20:37:12.860Z,101133.97
2023-01-05T20:39:42.722Z,101133.81
2023-01-05T20:42:13.549Z,101135.41
2023-01-05T20:44:45.222Z,101139.88
2023-01-05T20:47:14.457Z,101142.59
2023-01-05T20:49:45.543Z,101149.78
2023-01-05T20:52:16.152Z,101151.69
2023-01-05T20:54:44.974Z,101149.06
2023-01-05T20:57:13.593Z,101150.13
2023-01-05T20:59:42.608Z,101153.75
2023-01-05T21:02:23.375Z,101159.09
2023-01-05T21:04:53.588Z,101158.22
2023-01-05T21:07:22.962Z,101161.72
2023-01-05T21:09:52.655Z,101152.69
2023-01-05T21:12:21.908Z,101153.44
2023-01-05T21:14:50.381Z,101154.94
2023-01-05T21:17:19.005Z,101161.78
2023-01-05T21:19:47.434Z,101163.41
2023-01-05T21:22:16.472Z,101163.44
2023-01-05T21:24:46.181Z,101162.56
2023-01-05T21:27:14.795Z,101162.50
2023-01-05T21:29:43.685Z,101165.03
2023-01-05T21:32:12.023Z,101170.25
2023-01-05T21:34:40.313Z,101178.13
2023-01-05T21:37:08.810Z,101174.53
2023-01-05T21:39:37.101Z,101180.59
2023-01-05T21:42:23.803Z,101183.25
2023-01-05T21:44:52.274Z,101180.59
2023-01-05T21:47:20.642Z,101176.19
2023-01-05T21:49:48.908Z,101181.56
2023-01-05T21:52:35.672Z,101185.09
2023-01-05T21:55:22.546Z,101183.31
2023-01-05T21:57:50.812Z,101193.00
2023-01-05T22:00:19.184Z,101194.72
2023-01-05T22:02:47.524Z,101196.41
2023-01-05T22:05:16.088Z,101200.84
2023-01-05T22:07:44.527Z,101204.44
2023-01-05T22:10:13.454Z,101204.44
2023-01-05T22:12:41.913Z,101204.44
2023-01-05T22:15:11.104Z,101214.00
2023-01-05T22:17:39.510Z,101213.56
2023-01-05T22:20:08.908Z,101208.81
2023-01-05T22:22:37.288Z,101219.56
2023-01-05T22:25:05.939Z,101215.16
2023-01-05T22:27:34.634Z,101214.50
2023-01-05T22:30:03.043Z,101224.59
2023-01-05T22:32:31.421Z,101226.78
2023-01-05T22:34:59.712Z,101228.84
2023-01-05T22:37:28.096Z,101231.69
2023-01-05T22:39:56.487Z,101229.22
2023-01-05T22:42:25.224Z,101231.94
2023-01-05T22:44:53.529Z,101238.31
2023-01-05T22:47:21.821Z,101240.03
2023-01-05T22:49:50.293Z,101241.78
2023-01-05T22:52:18.675Z,101241.97
2023-01-05T22:54:47.029Z,101245.75
2023-01-05T22:57:15.341Z,101254.78
2023-01-05T22:59:43.684Z,101259.22
2023-01-05T23:02:12.100Z,101268.81
2023-01-05T23:04:40.439Z,101276.78
2023-01-05T23:07:08.754Z,101287.31
2023-01-05T23:09:37.090Z,101287.22
2023-01-05T23:12:05.874Z,101294.13
2023-01-05T23:14:34.223Z,101306.41
2023-01-05T23:17:02.590Z,101305.50
2023-01-05T23:19:31.009Z,101309.06
2023-01-05T23:21:59.667Z,101318.91
2023-01-05T23:24:27.978Z,101314.56
2023-01-05T23:26:56.605Z,101325.19
2023-01-05T23:29:26.645Z,101334.91
2023-01-05T23:31:55.350Z,101335.69
2023-01-05T23:34:23.783Z,101339.13
2023-01-05T23:36:52.109Z,101346.19
2023-01-05T23:39:20.475Z,101356.84
2023-01-05T23:41:48.948Z,101357.81
2023-01-05T23:44:18.332Z,101370.19
2023-01-05T23:46:47.512Z,101382.63
2023-01-05T23:49:15.805Z,101393.06
2023-01-05T23:51:44.123Z,101395.59
2023-01-05T23:54:12.442Z,101395.44
2023-01-05T23:56:40.804Z,101390.09
2023-01-05T23:59:10.135Z,101396.28
